Time;durP1;ratioP1;P1;durP2;ratioP2;P2;SDS_P1;SDS_P2;PMS_P1;PMS_P2;Temp;Humidity;BMP_temperature;BMP_pressure;BME280_temperature;BME280_humidity;BME280_pressure;Samples;Min_cycle;Max_cycle;Signal;HPM_P1;HPM_P2
2023/08/27 00:01:55;;;;;;;;;4.50;4.50;;;;;15.60;67.55;99353.63;5098479;28;8826;-57
2023/08/27 00:04:22;;;;;;;;;6.50;6.25;;;;;15.58;67.41;99347.59;5098513;28;8822;-58
2023/08/27 00:06:50;;;;;;;;;6.25;6.25;;;;;15.56;67.34;99334.31;5098454;28;8836;-58
2023/08/27 00:09:18;;;;;;;;;6.25;6.25;;;;;15.54;67.36;99324.78;5098404;28;8845;-58
2023/08/27 00:11:46;;;;;;;;;4.00;4.00;;;;;15.51;67.69;99317.91;5098307;28;8833;-58
2023/08/27 00:14:13;;;;;;;;;4.00;3.25;;;;;15.52;67.25;99316.91;5098462;28;8826;-58
2023/08/27 00:16:42;;;;;;;;;6.00;6.00;;;;;15.55;67.49;99338.03;5098133;28;8870;-58
2023/08/27 00:19:09;;;;;;;;;3.50;3.50;;;;;15.56;67.36;99358.47;5098071;28;8842;-59
2023/08/27 00:21:37;;;;;;;;;3.50;3.25;;;;;15.57;67.33;99327.13;5098298;28;8814;-58
2023/08/27 00:24:05;;;;;;;;;6.50;6.25;;;;;15.58;67.37;99331.47;5097962;28;8826;-57
2023/08/27 00:26:33;;;;;;;;;4.50;4.50;;;;;15.58;67.60;99318.06;5098183;28;8826;-57
2023/08/27 00:29:00;;;;;;;;;5.00;4.50;;;;;15.59;67.15;99306.31;5097066;28;9587;-58
2023/08/27 00:31:28;;;;;;;;;4.00;3.75;;;;;15.60;67.24;99319.56;5098115;28;9003;-60
2023/08/27 00:34:00;;;;;;;;;5.00;5.00;;;;;15.60;67.18;99324.94;5097627;28;8845;-59
2023/08/27 00:36:27;;;;;;;;;5.50;5.50;;;;;15.62;66.88;99311.38;5097925;28;8833;-59
2023/08/27 00:38:55;;;;;;;;;6.00;4.00;;;;;15.62;67.67;99295.25;5097058;28;8849;-58
2023/08/27 00:41:23;;;;;;;;;5.00;4.75;;;;;15.64;67.49;99283.31;5097636;28;8845;-57
2023/08/27 00:43:50;;;;;;;;;3.00;3.00;;;;;15.67;67.47;99268.72;5097910;28;8954;-59
2023/08/27 00:46:18;;;;;;;;;7.00;7.00;;;;;15.68;67.75;99251.59;5097848;28;8856;-58
2023/08/27 00:48:45;;;;;;;;;5.00;5.00;;;;;15.68;67.41;99259.66;5097668;28;8834;-58
2023/08/27 00:51:13;;;;;;;;;3.00;3.00;;;;;15.67;67.38;99263.34;5097590;28;9526;-58
2023/08/27 00:53:41;;;;;;;;;6.75;6.00;;;;;15.62;67.61;99261.19;5097311;28;8858;-57
2023/08/27 00:56:09;;;;;;;;;6.50;6.00;;;;;15.59;67.40;99258.00;5097347;28;8818;-58
2023/08/27 00:58:37;;;;;;;;;5.50;5.50;;;;;15.57;67.66;99254.66;5097030;28;8895;-57
2023/08/27 01:01:05;;;;;;;;;1.50;1.00;;;;;15.53;67.14;99247.94;5097426;28;8833;-58
2023/08/27 01:03:32;;;;;;;;;6.00;5.00;;;;;15.51;67.28;99239.22;5097473;28;9539;-59
2023/08/27 01:06:01;;;;;;;;;6.00;5.00;;;;;15.49;67.88;99241.25;5097249;28;9606;-58
2023/08/27 01:08:28;;;;;;;;;4.25;3.50;;;;;15.46;68.04;99242.44;5096681;28;8818;-58
2023/08/27 01:10:56;;;;;;;;;5.25;3.25;;;;;15.44;67.86;99243.59;5097419;28;8841;-57
2023/08/27 01:13:23;;;;;;;;;6.00;4.00;;;;;15.40;68.08;99240.41;5096644;28;8838;-58
2023/08/27 01:15:51;;;;;;;;;6.50;5.50;;;;;15.36;67.68;99232.88;5096693;28;8822;-57
2023/08/27 01:18:19;;;;;;;;;3.00;3.00;;;;;15.31;68.11;99237.91;5096559;28;8853;-58
2023/08/27 01:20:46;;;;;;;;;6.00;6.00;;;;;15.27;68.54;99249.97;5096564;28;8806;-59
2023/08/27 01:23:14;;;;;;;;;6.50;6.50;;;;;15.24;68.53;99245.75;5096927;28;8846;-58
2023/08/27 01:25:41;;;;;;;;;6.00;6.00;;;;;15.22;68.32;99253.16;5096619;28;8830;-58
2023/08/27 01:28:09;;;;;;;;;4.00;4.00;;;;;15.18;68.83;99270.56;5097111;28;8826;-58
2023/08/27 01:30:36;;;;;;;;;5.75;5.75;;;;;15.16;68.45;99277.13;5097571;28;8837;-59
2023/08/27 01:33:04;;;;;;;;;4.50;4.50;;;;;15.11;68.81;99263.38;5096609;28;8826;-58
2023/08/27 01:35:32;;;;;;;;;5.00;5.00;;;;;15.07;68.84;99245.94;5096558;28;8834;-60
2023/08/27 01:37:59;;;;;;;;;6.00;6.00;;;;;15.03;68.46;99231.19;5096715;28;8834;-57
2023/08/27 01:40:28;;;;;;;;;3.25;3.25;;;;;14.99;68.51;99240.56;5097660;28;8826;-58
2023/08/27 01:42:56;;;;;;;;;4.00;3.50;;;;;14.99;69.08;99256.66;5097336;28;8825;-59
2023/08/27 01:45:24;;;;;;;;;4.25;3.75;;;;;14.96;68.60;99249.78;5096413;28;8891;-59
2023/08/27 01:47:52;;;;;;;;;4.00;4.00;;;;;14.94;68.66;99257.16;5096103;28;8814;-57
2023/08/27 01:50:19;;;;;;;;;7.00;6.75;;;;;14.92;69.19;99247.59;5096474;28;8956;-58
2023/08/27 01:52:47;;;;;;;;;6.25;6.25;;;;;14.88;69.30;99249.78;5096494;28;8822;-57
2023/08/27 01:55:14;;;;;;;;;4.50;4.50;;;;;14.88;69.11;99257.81;5096468;28;8850;-57
2023/08/27 01:57:42;;;;;;;;;6.75;6.50;;;;;14.88;69.52;99259.66;5096131;28;8822;-57
2023/08/27 02:00:10;;;;;;;;;4.00;4.00;;;;;14.87;69.36;99258.00;5096836;28;8860;-59
2023/08/27 02:02:38;;;;;;;;;4.50;4.50;;;;;14.88;68.74;99257.00;5097470;28;9471;-59
2023/08/27 02:05:06;;;;;;;;;4.00;3.50;;;;;14.89;69.14;99245.25;5096153;28;8818;-60
2023/08/27 02:07:35;;;;;;;;;3.00;1.50;;;;;14.90;69.34;99242.41;5096204;28;8807;-59
2023/08/27 02:10:04;;;;;;;;;6.00;6.00;;;;;14.88;68.78;99225.63;5096306;28;8834;-58
2023/08/27 02:12:31;;;;;;;;;4.00;4.00;;;;;14.88;69.10;99236.38;5095446;28;8819;-58
2023/08/27 02:14:59;;;;;;;;;5.75;5.00;;;;;14.85;68.71;99242.06;5095785;28;8834;-60
2023/08/27 02:17:26;;;;;;;;;2.00;1.00;;;;;14.84;68.99;99239.53;5095778;28;9471;-60
2023/08/27 02:19:54;;;;;;;;;4.00;4.00;;;;;14.81;69.02;99231.84;5095996;28;9501;-58
2023/08/27 02:22:21;;;;;;;;;6.50;6.50;;;;;14.80;69.05;99227.50;5095453;28;8919;-57
2023/08/27 02:24:50;;;;;;;;;3.50;3.50;;;;;14.79;69.40;99232.00;5096493;28;8818;-56
2023/08/27 02:27:17;;;;;;;;;4.00;4.00;;;;;14.79;69.38;99228.50;5095840;28;8818;-56
2023/08/27 02:29:45;;;;;;;;;7.00;7.00;;;;;14.79;69.13;99231.19;5095888;28;8857;-60
2023/08/27 02:32:12;;;;;;;;;7.00;6.00;;;;;14.79;69.09;99223.16;5096368;28;8814;-60
2023/08/27 02:34:40;;;;;;;;;9.00;7.50;;;;;14.78;69.22;99224.13;5095656;28;8834;-59
2023/08/27 02:37:07;;;;;;;;;6.75;6.50;;;;;14.76;69.27;99234.19;5095566;28;8810;-59
2023/08/27 02:39:35;;;;;;;;;7.00;7.00;;;;;14.73;69.50;99232.66;5096020;28;8826;-58
2023/08/27 02:42:03;;;;;;;;;9.50;9.50;;;;;14.72;69.13;99220.25;5095555;28;8798;-58
2023/08/27 02:44:30;;;;;;;;;7.00;6.25;;;;;14.69;69.28;99209.03;5095391;28;8837;-58
2023/08/27 02:46:58;;;;;;;;;6.00;6.00;;;;;14.67;69.41;99208.38;5095569;28;8889;-57
2023/08/27 02:49:25;;;;;;;;;9.00;8.50;;;;;14.66;69.26;99198.66;5095364;28;8829;-59
2023/08/27 02:51:54;;;;;;;;;4.00;4.00;;;;;14.64;69.86;99204.19;5095734;28;8829;-60
2023/08/27 02:54:21;;;;;;;;;4.00;3.50;;;;;14.62;69.38;99191.94;5095683;28;9716;-58
2023/08/27 02:56:49;;;;;;;;;6.50;6.00;;;;;14.61;70.05;99198.31;5095334;28;8826;-59
2023/08/27 02:59:16;;;;;;;;;6.00;6.00;;;;;14.59;69.84;99193.13;5095385;28;8822;-58
2023/08/27 03:01:44;;;;;;;;;6.00;4.50;;;;;14.56;70.20;99201.50;5095579;28;8818;-58
2023/08/27 03:04:12;;;;;;;;;3.50;3.50;;;;;14.55;69.68;99193.59;5095103;28;8834;-59
2023/08/27 03:06:40;;;;;;;;;4.50;4.00;;;;;14.54;69.56;99199.97;5095006;28;9515;-59
2023/08/27 03:09:07;;;;;;;;;6.75;6.75;;;;;14.50;70.24;99185.25;5094788;28;8928;-57
2023/08/27 03:11:35;;;;;;;;;9.00;9.00;;;;;14.48;69.85;99196.13;5094158;28;8853;-59
2023/08/27 03:14:02;;;;;;;;;7.50;7.00;;;;;14.44;70.38;99183.22;5094900;28;8822;-59
2023/08/27 03:16:30;;;;;;;;;6.75;6.50;;;;;14.38;70.01;99183.88;5094902;28;9507;-59
2023/08/27 03:18:58;;;;;;;;;6.50;6.25;;;;;14.32;70.64;99184.53;5094109;28;8832;-58
2023/08/27 03:21:26;;;;;;;;;6.00;6.00;;;;;14.29;69.96;99176.81;5094956;28;8810;-57
2023/08/27 03:23:53;;;;;;;;;6.75;6.75;;;;;14.26;70.80;99180.66;5095400;28;8834;-59
2023/08/27 03:26:21;;;;;;;;;8.00;6.25;;;;;14.24;70.36;99181.81;5095303;28;8826;-59
2023/08/27 03:28:49;;;;;;;;;5.50;4.75;;;;;14.22;70.63;99189.19;5094939;28;8822;-59
2023/08/27 03:31:16;;;;;;;;;5.00;5.00;;;;;14.19;70.99;99187.69;5095071;28;8833;-58
2023/08/27 03:33:45;;;;;;;;;3.00;3.00;;;;;14.18;70.45;99182.50;5095465;28;8818;-59
2023/08/27 03:36:12;;;;;;;;;10.00;9.00;;;;;14.16;70.48;99185.31;5094704;28;8814;-59
2023/08/27 03:38:40;;;;;;;;;7.00;6.75;;;;;14.17;70.52;99180.78;5094844;28;8818;-57
2023/08/27 03:41:07;;;;;;;;;6.00;6.00;;;;;14.14;70.88;99187.31;5095607;28;8830;-60
2023/08/27 03:43:35;;;;;;;;;6.00;6.00;;;;;14.12;70.57;99188.47;5095206;28;8826;-57
2023/08/27 03:46:03;;;;;;;;;7.00;6.75;;;;;14.08;70.94;99190.63;5094573;28;8846;-60
2023/08/27 03:48:30;;;;;;;;;6.50;5.50;;;;;14.07;70.89;99186.28;5093753;28;8822;-59
2023/08/27 03:50:58;;;;;;;;;7.00;6.50;;;;;14.06;70.95;99183.75;5094428;28;8810;-57
2023/08/27 03:53:26;;;;;;;;;7.50;7.00;;;;;14.06;71.23;99183.75;5095001;28;8861;-56
2023/08/27 03:55:55;;;;;;;;;6.50;6.50;;;;;14.04;70.62;99186.59;5094882;28;8830;-59
2023/08/27 03:58:22;;;;;;;;;6.50;6.25;;;;;14.05;70.79;99190.13;5094681;28;8990;-57
2023/08/27 04:00:50;;;;;;;;;8.25;8.00;;;;;14.07;71.00;99185.44;5094115;28;8830;-58
2023/08/27 04:03:17;;;;;;;;;6.25;6.25;;;;;14.08;70.39;99184.44;5094758;28;8857;-58
2023/08/27 04:05:48;;;;;;;;;6.00;6.00;;;;;14.09;70.76;99183.44;5094492;28;9548;-58
2023/08/27 04:08:16;;;;;;;;;5.50;4.00;;;;;14.09;70.58;99192.31;5093992;28;8822;-57
2023/08/27 04:10:43;;;;;;;;;5.50;4.75;;;;;14.12;70.88;99185.78;5094176;28;8864;-59
2023/08/27 04:13:11;;;;;;;;;6.75;4.50;;;;;14.13;70.21;99187.47;5094127;28;8822;-58
2023/08/27 04:15:39;;;;;;;;;9.25;9.00;;;;;14.13;70.75;99179.44;5094456;28;8926;-59
2023/08/27 04:18:06;;;;;;;;;6.25;6.00;;;;;14.10;70.97;99177.06;5093616;28;9570;-60
2023/08/27 04:20:34;;;;;;;;;2.50;2.50;;;;;14.08;70.80;99193.31;5094319;28;8836;-56
2023/08/27 04:23:02;;;;;;;;;2.00;2.00;;;;;14.06;70.85;99181.94;5094418;28;8822;-58
2023/08/27 04:25:30;;;;;;;;;6.50;6.25;;;;;14.04;70.58;99172.38;5094937;28;8825;-58
2023/08/27 04:27:58;;;;;;;;;6.00;6.00;;;;;14.05;70.66;99182.91;5094281;28;8855;-57
2023/08/27 04:30:25;;;;;;;;;4.00;4.00;;;;;14.06;71.07;99170.38;5096299;28;8818;-59
2023/08/27 04:32:53;;;;;;;;;6.00;6.00;;;;;14.08;70.77;99177.25;5098033;28;8860;-60
2023/08/27 04:35:23;;;;;;;;;6.75;6.75;;;;;14.09;70.75;99172.72;5098256;28;8903;-57
2023/08/27 04:37:50;;;;;;;;;5.00;4.50;;;;;14.06;70.55;99165.03;5097811;28;8830;-58
2023/08/27 04:40:18;;;;;;;;;6.00;5.50;;;;;14.05;70.58;99171.38;5098485;28;9690;-58
2023/08/27 04:42:45;;;;;;;;;6.25;6.00;;;;;14.05;70.56;99176.72;5097489;28;9499;-58
2023/08/27 04:45:13;;;;;;;;;6.00;6.00;;;;;14.04;71.30;99175.06;5098530;28;8819;-60
2023/08/27 04:47:41;;;;;;;;;6.00;6.00;;;;;14.03;70.39;99168.03;5097474;28;8845;-60
2023/08/27 04:50:09;;;;;;;;;6.00;6.00;;;;;14.05;70.66;99166.84;5097512;28;8841;-57
2023/08/27 04:52:36;;;;;;;;;6.25;4.50;;;;;14.07;70.88;99172.03;5096994;28;8887;-57
2023/08/27 04:55:05;;;;;;;;;6.00;5.50;;;;;14.10;70.61;99169.03;5097289;28;8814;-56
2023/08/27 04:57:33;;;;;;;;;5.00;4.50;;;;;14.12;70.38;99167.88;5097901;28;8907;-60
2023/08/27 05:00:01;;;;;;;;;5.25;3.00;;;;;14.14;70.78;99159.69;5097305;28;8846;-60
2023/08/27 05:02:28;;;;;;;;;4.00;4.00;;;;;14.16;70.66;99171.91;5097394;28;8837;-60
2023/08/27 05:04:56;;;;;;;;;3.50;3.50;;;;;14.18;70.45;99180.66;5097104;28;9483;-60
2023/08/27 05:07:24;;;;;;;;;4.00;4.00;;;;;14.22;70.29;99173.13;5097470;28;8821;-57
2023/08/27 05:09:51;;;;;;;;;5.00;4.50;;;;;14.27;70.69;99173.47;5096845;28;8818;-57
2023/08/27 05:12:19;;;;;;;;;3.50;3.50;;;;;14.34;70.80;99166.47;5096750;28;8911;-59
2023/08/27 05:14:47;;;;;;;;;3.25;3.00;;;;;14.44;70.46;99161.78;5097244;28;8838;-57
2023/08/27 05:17:14;;;;;;;;;4.00;4.00;;;;;14.54;69.55;99157.09;5097627;28;8856;-58
2023/08/27 05:19:42;;;;;;;;;4.00;4.00;;;;;14.61;69.88;99150.06;5097455;28;8837;-58
2023/08/27 05:22:10;;;;;;;;;6.00;4.00;;;;;14.70;69.21;99162.47;5096971;28;8818;-59
2023/08/27 05:24:37;;;;;;;;;3.25;3.25;;;;;14.77;69.64;99156.28;5097176;28;8850;-57
2023/08/27 05:27:05;;;;;;;;;2.50;2.50;;;;;14.82;69.25;99151.28;5096784;28;8853;-58
2023/08/27 05:29:33;;;;;;;;;3.25;3.00;;;;;14.84;68.98;99146.56;5096517;28;8841;-59
2023/08/27 05:32:00;;;;;;;;;3.00;3.00;;;;;14.86;69.55;99141.88;5096795;28;8830;-58
2023/08/27 05:34:28;;;;;;;;;3.50;2.00;;;;;14.90;69.11;99139.69;5097042;28;9867;-58
2023/08/27 05:36:55;;;;;;;;;3.00;3.00;;;;;14.93;69.41;99139.34;5096772;28;8857;-58
2023/08/27 05:39:23;;;;;;;;;4.00;4.00;;;;;15.01;68.51;99131.31;5096706;28;8818;-58
2023/08/27 05:41:51;;;;;;;;;3.50;3.00;;;;;15.08;69.31;99130.44;5096096;28;8828;-59
2023/08/27 05:44:19;;;;;;;;;3.00;3.00;;;;;15.16;69.00;99124.25;5096436;28;8818;-59
2023/08/27 05:46:46;;;;;;;;;3.00;3.00;;;;;15.22;68.52;99110.97;5096197;28;9503;-57
2023/08/27 05:49:14;;;;;;;;;6.00;6.00;;;;;15.32;68.30;99117.00;5097248;28;8822;-59
2023/08/27 05:51:42;;;;;;;;;2.50;1.00;;;;;15.47;68.52;99125.22;5095816;28;8830;-58
2023/08/27 05:54:09;;;;;;;;;3.75;3.75;;;;;15.63;67.42;99128.66;5096446;28;8826;-59
2023/08/27 05:56:37;;;;;;;;;2.60;2.60;;;;;15.81;67.65;99129.25;5096561;28;8826;-59
2023/08/27 05:59:04;;;;;;;;;3.40;3.20;;;;;15.99;67.32;99121.78;5096720;28;8826;-58
2023/08/27 06:01:32;;;;;;;;;3.75;3.25;;;;;16.15;66.59;99127.03;5096352;28;9780;-59
2023/08/27 06:04:00;;;;;;;;;2.20;2.20;;;;;16.28;66.29;99125.47;5095719;28;8840;-60
2023/08/27 06:06:28;;;;;;;;;4.00;4.00;;;;;16.38;66.42;99118.03;5096200;28;8869;-58
2023/08/27 06:08:55;;;;;;;;;3.80;3.80;;;;;16.47;66.32;99133.09;5096062;28;8856;-60
2023/08/27 06:11:23;;;;;;;;;3.00;3.00;;;;;16.52;66.55;99143.28;5096422;28;8852;-59
2023/08/27 06:13:51;;;;;;;;;3.00;3.00;;;;;16.54;66.03;99181.56;5095743;28;8842;-58
2023/08/27 06:16:18;;;;;;;;;3.00;3.00;;;;;16.49;66.29;99195.56;5096731;28;8846;-56
2023/08/27 06:18:46;;;;;;;;;4.00;4.00;;;;;16.18;67.04;99185.81;5095310;28;8910;-60
2023/08/27 06:21:13;;;;;;;;;4.00;3.00;;;;;15.84;68.55;99182.59;5094378;28;8830;-58
2023/08/27 06:23:41;;;;;;;;;4.20;3.80;;;;;15.60;69.15;99184.53;5094897;28;8837;-58
2023/08/27 06:26:09;;;;;;;;;3.80;3.40;;;;;15.42;69.37;99179.38;5095076;28;8814;-59
2023/08/27 06:28:37;;;;;;;;;2.60;2.60;;;;;15.32;69.73;99192.13;5093624;28;8883;-57
2023/08/27 06:31:04;;;;;;;;;3.20;3.00;;;;;15.24;70.25;99194.78;5094080;28;8814;-60
2023/08/27 06:33:32;;;;;;;;;3.00;3.00;;;;;15.19;70.41;99190.94;5094045;28;8861;-59
2023/08/27 06:36:00;;;;;;;;;1.00;1.00;;;;;15.16;70.20;99196.66;5094353;28;8826;-59
2023/08/27 06:38:28;;;;;;;;;4.00;3.00;;;;;15.14;70.10;99204.03;5094615;28;8844;-58
2023/08/27 06:40:55;;;;;;;;;4.00;4.00;;;;;15.10;70.40;99206.19;5095325;28;8814;-57
2023/08/27 06:43:23;;;;;;;;;3.00;3.00;;;;;15.10;70.84;99211.56;5095256;28;9825;-60
2023/08/27 06:45:51;;;;;;;;;2.00;1.00;;;;;15.12;70.35;99206.03;5095353;28;8881;-60
2023/08/27 06:48:18;;;;;;;;;3.00;3.00;;;;;15.11;71.05;99199.84;5094897;28;9507;-59
2023/08/27 06:50:46;;;;;;;;;3.50;3.50;;;;;15.13;70.89;99205.03;5095735;28;8830;-59
2023/08/27 06:53:14;;;;;;;;;0.50;0.50;;;;;15.15;70.76;99206.53;5094469;28;8822;-58
2023/08/27 06:55:41;;;;;;;;;3.50;3.00;;;;;15.17;70.66;99214.44;5094721;28;8845;-60
2023/08/27 06:58:09;;;;;;;;;4.75;4.25;;;;;15.17;70.84;99206.38;5094204;28;8858;-59
2023/08/27 07:00:39;;;;;;;;;3.25;3.25;;;;;15.16;71.15;99194.81;5093983;28;9510;-59
2023/08/27 07:03:07;;;;;;;;;3.00;3.00;;;;;15.19;70.78;99193.63;5094191;28;8879;-58
2023/08/27 07:05:35;;;;;;;;;3.75;3.50;;;;;15.20;70.75;99195.31;5094231;28;8840;-60
2023/08/27 07:08:04;;;;;;;;;3.00;3.00;;;;;15.19;71.63;99190.94;5094199;28;9597;-60
2023/08/27 07:10:31;;;;;;;;;3.00;2.50;;;;;15.21;71.09;99200.50;5094633;28;8895;-59
2023/08/27 07:13:00;;;;;;;;;3.00;3.00;;;;;15.20;70.98;99203.34;5094488;28;8890;-60
2023/08/27 07:15:28;;;;;;;;;0.25;0.00;;;;;15.22;71.56;99204.00;5094516;28;8826;-58
2023/08/27 07:17:56;;;;;;;;;3.00;3.00;;;;;15.21;71.62;99216.59;5094826;28;8826;-60
2023/08/27 07:20:24;;;;;;;;;3.75;3.00;;;;;15.19;71.41;99212.41;5095414;28;9495;-59
2023/08/27 07:22:52;;;;;;;;;6.00;3.00;;;;;15.17;71.69;99215.25;5094402;28;8958;-57
2023/08/27 07:25:21;;;;;;;;;2.50;2.50;;;;;15.16;71.53;99224.31;5094651;28;8818;-60
2023/08/27 07:27:49;;;;;;;;;3.50;3.25;;;;;15.18;71.64;99234.88;5094741;28;8854;-57
2023/08/27 07:30:17;;;;;;;;;3.75;3.75;;;;;15.23;71.84;99228.00;5094524;28;9573;-57
2023/08/27 07:32:44;;;;;;;;;2.00;2.00;;;;;15.31;71.55;99219.13;5094890;28;8929;-57
2023/08/27 07:35:12;;;;;;;;;3.00;3.00;;;;;15.40;71.42;99210.91;5094838;28;9587;-58
2023/08/27 07:37:40;;;;;;;;;4.00;4.00;;;;;15.55;70.80;99206.50;5094618;28;8830;-59
2023/08/27 07:40:09;;;;;;;;;3.40;3.40;;;;;15.71;70.84;99200.28;5094047;28;8940;-59
2023/08/27 07:42:37;;;;;;;;;0.00;0.00;;;;;15.85;70.19;99196.88;5094487;28;8906;-59
2023/08/27 07:45:04;;;;;;;;;7.00;5.00;;;;;15.98;70.44;99194.44;5094223;28;8822;-57
2023/08/27 07:47:32;;;;;;;;;3.00;3.00;;;;;16.09;70.02;99191.41;5095304;28;8846;-59
2023/08/27 07:50:00;;;;;;;;;3.40;3.40;;;;;16.16;69.80;99190.50;5094221;28;8838;-57
2023/08/27 07:52:28;;;;;;;;;4.00;4.00;;;;;16.26;69.45;99191.97;5094393;28;8810;-57
2023/08/27 07:54:56;;;;;;;;;3.80;3.80;;;;;16.39;69.64;99192.25;5094383;28;8822;-58
2023/08/27 07:57:25;;;;;;;;;2.20;2.20;;;;;16.52;69.16;99189.84;5094079;28;8822;-56
2023/08/27 07:59:54;;;;;;;;;3.00;3.00;;;;;16.64;68.63;99199.16;5094567;28;8876;-57
2023/08/27 08:02:21;;;;;;;;;1.40;1.40;;;;;16.72;68.91;99204.47;5094181;28;8960;-59
2023/08/27 08:04:50;;;;;;;;;1.00;1.00;;;;;16.81;68.56;99199.88;5097364;28;8895;-58
2023/08/27 08:07:17;;;;;;;;;1.40;1.40;;;;;16.88;68.34;99200.84;5097520;28;8848;-58
2023/08/27 08:09:45;;;;;;;;;3.20;3.00;;;;;16.98;68.09;99206.81;5097733;28;8818;-57
2023/08/27 08:12:13;;;;;;;;;3.00;3.00;;;;;17.07;68.33;99206.56;5097680;28;8856;-58
2023/08/27 08:14:41;;;;;;;;;3.00;3.00;;;;;17.18;68.07;99208.00;5096517;28;8923;-57
2023/08/27 08:17:11;;;;;;;;;3.00;3.00;;;;;17.27;67.42;99196.13;5097193;28;8849;-58
2023/08/27 08:19:39;;;;;;;;;3.00;3.00;;;;;17.40;68.02;99199.88;5097348;28;8826;-57
2023/08/27 08:22:07;;;;;;;;;5.20;5.20;;;;;17.52;67.49;99209.19;5097548;28;8952;-58
2023/08/27 08:24:34;;;;;;;;;3.80;3.40;;;;;17.64;67.08;99199.66;5097643;28;8834;-58
2023/08/27 08:27:03;;;;;;;;;3.00;3.00;;;;;17.73;67.26;99209.31;5097289;28;8953;-58
2023/08/27 08:29:31;;;;;;;;;3.00;3.00;;;;;17.78;67.10;99220.34;5097120;28;8868;-58
2023/08/27 08:31:59;;;;;;;;;0.80;0.80;;;;;17.85;67.06;99221.28;5097682;28;8850;-58
2023/08/27 08:34:27;;;;;;;;;3.00;3.00;;;;;17.89;67.21;99224.44;5096464;28;8975;-58
2023/08/27 08:36:55;;;;;;;;;0.40;0.40;;;;;17.90;67.64;99226.97;5097097;28;8818;-58
2023/08/27 08:39:24;;;;;;;;;1.80;1.80;;;;;17.98;67.09;99220.66;5096907;28;8841;-58
2023/08/27 08:41:52;;;;;;;;;3.20;3.20;;;;;18.05;67.24;99214.31;5097158;28;8890;-58
2023/08/27 08:44:20;;;;;;;;;1.40;1.40;;;;;18.13;67.20;99222.31;5096838;28;8822;-58
2023/08/27 08:46:48;;;;;;;;;4.00;4.00;;;;;18.19;66.77;99216.19;5096244;28;8972;-59
2023/08/27 08:49:15;;;;;;;;;4.00;4.00;;;;;18.23;66.94;99217.44;5097496;28;8952;-57
2023/08/27 08:51:43;;;;;;;;;3.20;1.00;;;;;18.29;67.00;99221.28;5097086;28;8826;-58
2023/08/27 08:54:11;;;;;;;;;3.40;3.20;;;;;18.38;67.19;99222.88;5097103;28;9599;-58
2023/08/27 08:56:39;;;;;;;;;3.00;3.00;;;;;18.45;66.49;99221.91;5097561;28;8848;-59
2023/08/27 08:59:08;;;;;;;;;4.00;4.00;;;;;18.50;67.08;99230.28;5097137;28;8834;-58
2023/08/27 09:01:36;;;;;;;;;3.80;3.80;;;;;18.56;66.87;99234.91;5096635;28;8821;-58
2023/08/27 09:04:04;;;;;;;;;6.00;6.00;;;;;18.63;66.50;99233.13;5097181;28;8825;-57
2023/08/27 09:06:32;;;;;;;;;4.00;4.00;;;;;18.71;66.92;99221.38;5097400;28;8877;-58
2023/08/27 09:08:59;;;;;;;;;4.80;3.80;;;;;18.78;66.41;99217.75;5097025;28;8818;-57
2023/08/27 09:11:27;;;;;;;;;3.00;3.00;;;;;18.90;66.32;99209.97;5097183;28;8833;-58
2023/08/27 09:13:55;;;;;;;;;6.00;6.00;;;;;18.91;66.53;99209.75;5096738;28;8864;-60
2023/08/27 09:16:23;;;;;;;;;6.40;6.40;;;;;18.87;66.50;99211.19;5095966;28;8864;-58
2023/08/27 09:18:51;;;;;;;;;4.80;4.80;;;;;18.85;66.67;99202.47;5096790;28;8836;-58
2023/08/27 09:21:19;;;;;;;;;1.00;1.00;;;;;18.83;66.47;99204.50;5096576;28;8836;-58
2023/08/27 09:23:47;;;;;;;;;5.80;5.80;;;;;18.82;66.71;99208.22;5096182;28;8822;-58
2023/08/27 09:26:17;;;;;;;;;4.80;3.40;;;;;18.86;66.65;99211.38;5096719;28;8855;-59
2023/08/27 09:28:45;;;;;;;;;3.00;3.00;;;;;18.89;66.92;99214.53;5095906;28;8798;-58
2023/08/27 09:31:14;;;;;;;;;4.00;4.00;;;;;18.91;66.92;99211.63;5095523;28;8821;-58
2023/08/27 09:33:42;;;;;;;;;6.00;6.00;;;;;18.88;66.80;99210.16;5095926;28;8830;-59
2023/08/27 09:36:09;;;;;;;;;3.00;3.00;;;;;18.83;67.12;99204.50;5096080;28;8821;-58
2023/08/27 09:38:39;;;;;;;;;5.20;5.20;;;;;18.80;66.82;99204.88;5095581;28;9463;-59
2023/08/27 09:41:07;;;;;;;;;5.60;4.40;;;;;18.81;67.19;99205.75;5095684;28;8810;-57
2023/08/27 09:43:35;;;;;;;;;4.00;4.00;;;;;18.80;67.19;99202.19;5095927;28;8826;-59
2023/08/27 09:46:03;;;;;;;;;4.40;3.20;;;;;18.83;66.93;99192.88;5095573;28;8934;-58
2023/08/27 09:48:31;;;;;;;;;4.00;4.00;;;;;18.83;67.25;99185.59;5095744;28;8872;-58
2023/08/27 09:50:59;;;;;;;;;4.00;3.80;;;;;18.86;67.31;99184.38;5095520;28;8891;-59
2023/08/27 09:53:27;;;;;;;;;4.00;3.80;;;;;18.90;67.18;99191.91;5095284;28;8822;-58
2023/08/27 09:55:54;;;;;;;;;3.00;3.00;;;;;18.96;66.92;99188.44;5096000;28;8830;-59
2023/08/27 09:58:22;;;;;;;;;3.60;3.20;;;;;18.99;66.56;99179.97;5095818;28;8965;-59
2023/08/27 10:00:50;;;;;;;;;1.80;1.80;;;;;19.02;66.91;99176.88;5095840;28;8818;-60
2023/08/27 10:03:18;;;;;;;;;3.00;3.00;;;;;19.01;66.49;99175.22;5096035;28;8830;-58
2023/08/27 10:05:47;;;;;;;;;3.60;3.60;;;;;18.97;67.01;99176.59;5095421;28;8817;-58
2023/08/27 10:08:15;;;;;;;;;4.40;4.00;;;;;18.96;67.28;99168.72;5095317;28;8845;-58
2023/08/27 10:10:43;;;;;;;;;4.00;3.40;;;;;18.93;66.70;99172.66;5094923;28;9491;-58
2023/08/27 10:13:10;;;;;;;;;6.00;4.00;;;;;18.95;67.04;99165.19;5094169;28;8992;-58
2023/08/27 10:15:38;;;;;;;;;4.00;4.00;;;;;19.02;66.83;99166.06;5094284;28;9007;-58
2023/08/27 10:18:06;;;;;;;;;2.60;2.60;;;;;19.23;66.16;99167.94;5094122;28;8834;-61
2023/08/27 10:20:38;;;;;;;;;4.00;4.00;;;;;19.58;65.30;99167.78;5094091;28;8841;-58
2023/08/27 10:23:05;;;;;;;;;3.00;3.00;;;;;19.83;64.73;99155.47;5094033;28;8838;-61
2023/08/27 10:25:33;;;;;;;;;4.40;4.00;;;;;19.99;64.69;99157.84;5093957;28;8822;-58
2023/08/27 10:28:01;;;;;;;;;3.00;3.00;;;;;20.06;64.40;99164.16;5093238;28;8903;-60
2023/08/27 10:30:29;;;;;;;;;2.20;2.20;;;;;20.09;64.21;99160.22;5094880;28;8818;-59
2023/08/27 10:32:57;;;;;;;;;2.80;2.80;;;;;20.19;64.56;99160.66;5094328;28;8907;-59
2023/08/27 10:35:25;;;;;;;;;2.20;2.20;;;;;20.28;64.50;99156.75;5094690;28;8852;-59
2023/08/27 10:37:53;;;;;;;;;4.00;4.00;;;;;20.36;63.75;99145.75;5094881;28;8906;-58
2023/08/27 10:40:21;;;;;;;;;3.80;3.80;;;;;20.50;63.67;99148.28;5094585;28;8972;-59
2023/08/27 10:42:49;;;;;;;;;2.00;2.00;;;;;20.65;63.26;99145.41;5093104;28;8830;-60
2023/08/27 10:45:17;;;;;;;;;1.80;1.60;;;;;20.65;63.38;99154.38;5092689;28;8829;-60
2023/08/27 10:47:46;;;;;;;;;4.00;4.00;;;;;20.69;63.54;99146.66;5093143;28;8915;-58
2023/08/27 10:50:13;;;;;;;;;1.60;1.60;;;;;21.24;62.75;99152.53;5093628;28;8921;-58
2023/08/27 10:52:41;;;;;;;;;2.00;2.00;;;;;22.17;60.63;99144.88;5093377;28;8844;-59
2023/08/27 10:55:09;;;;;;;;;2.00;2.00;;;;;23.00;58.63;99136.47;5093809;28;8852;-59
2023/08/27 10:57:37;;;;;;;;;3.60;3.60;;;;;23.78;56.97;99146.66;5093887;28;8822;-60
2023/08/27 11:00:05;;;;;;;;;2.00;2.00;;;;;24.52;55.48;99148.09;5094361;28;8856;-60
2023/08/27 11:02:33;;;;;;;;;3.20;3.20;;;;;24.84;54.67;99132.34;5094210;28;8872;-58
2023/08/27 11:05:02;;;;;;;;;4.80;4.80;;;;;25.22;55.14;99135.50;5094212;28;9515;-60
2023/08/27 11:07:30;;;;;;;;;5.20;5.20;;;;;26.08;53.29;99137.31;5093864;28;8837;-59
2023/08/27 11:09:58;;;;;;;;;4.80;4.80;;;;;26.30;53.22;99136.44;5094042;28;8830;-60
2023/08/27 11:12:27;;;;;;;;;4.40;3.40;;;;;25.58;54.17;99136.16;5093353;28;8848;-59
2023/08/27 11:14:56;;;;;;;;;5.00;4.00;;;;;24.63;56.47;99141.03;5093063;28;8861;-59
2023/08/27 11:17:24;;;;;;;;;2.80;2.80;;;;;24.23;57.78;99145.31;5093404;28;8849;-58
2023/08/27 11:19:53;;;;;;;;;2.60;2.60;;;;;24.96;55.72;99138.66;5093250;28;8844;-60
2023/08/27 11:22:22;;;;;;;;;2.80;2.80;;;;;25.81;54.38;99128.78;5093689;28;8907;-60
2023/08/27 11:24:49;;;;;;;;;5.40;5.00;;;;;26.05;53.94;99130.44;5093352;28;8825;-59
2023/08/27 11:27:17;;;;;;;;;4.60;3.40;;;;;25.88;54.46;99134.16;5094517;28;8864;-59
2023/08/27 11:29:46;;;;;;;;;3.80;3.00;;;;;25.98;54.31;99137.09;5094037;28;8814;-59
2023/08/27 11:32:14;;;;;;;;;3.00;3.00;;;;;26.26;53.64;99137.97;5093903;28;8841;-59
2023/08/27 11:34:44;;;;;;;;;1.80;1.80;;;;;27.21;52.25;99131.66;5093485;28;8838;-59
2023/08/27 11:37:11;;;;;;;;;4.60;4.60;;;;;27.75;50.85;99125.41;5093517;28;8829;-58
2023/08/27 11:39:43;;;;;;;;;5.00;5.00;;;;;27.34;51.42;99131.31;5095780;28;8846;-59
2023/08/27 11:42:11;;;;;;;;;3.00;3.00;;;;;26.61;53.38;99126.94;5096863;28;8818;-60
2023/08/27 11:44:39;;;;;;;;;5.40;5.00;;;;;26.47;53.77;99136.47;5097005;28;8830;-58